createdAt,value
2023-04-28T00:00:11.945Z,99920.97
2023-04-28T00:03:14.274Z,99914.16
2023-04-28T00:06:16.396Z,99915.28
2023-04-28T00:09:18.480Z,99915.72
2023-04-28T00:12:20.394Z,99914.81
2023-04-28T00:15:22.403Z,99920.03
2023-04-28T00:18:24.373Z,99900.97
2023-04-28T00:21:28.004Z,99916.16
2023-04-28T00:24:30.058Z,99908.25
2023-04-28T00:27:33.464Z,99912.84
2023-04-28T00:30:35.492Z,99913.91
2023-04-28T00:33:37.394Z,99908.81
2023-04-28T00:36:39.310Z,99920.47
2023-04-28T00:39:41.783Z,99913.59
2023-04-28T00:42:43.715Z,99923.03
2023-04-28T00:45:45.594Z,99918.94
2023-04-28T00:48:48.740Z,99926.69
2023-04-28T00:51:50.826Z,99927.41
2023-04-28T00:54:53.030Z,99927.34
2023-04-28T00:57:57.502Z,99923.66
2023-04-28T01:01:08.140Z,99918.72
2023-04-28T01:04:10.485Z,99921.09
2023-04-28T01:07:14.370Z,99921.56
2023-04-28T01:10:16.393Z,99920.25
2023-04-28T01:13:19.043Z,99932.69
2023-04-28T01:16:21.521Z,99923.94
2023-04-28T01:19:23.737Z,99933.44
2023-04-28T01:22:27.283Z,99929.09
2023-04-28T01:25:29.124Z,99929.84
2023-04-28T01:28:31.720Z,99923.38
2023-04-28T01:31:34.097Z,99921.84
2023-04-28T01:34:36.306Z,99925.38
2023-04-28T01:37:41.234Z,99922.88
2023-04-28T01:40:43.290Z,99923.38
2023-04-28T01:43:45.275Z,99911.56
2023-04-28T01:46:47.264Z,99919.66
2023-04-28T01:49:50.129Z,99915.63
2023-04-28T01:52:52.012Z,99908.88
2023-04-28T01:55:54.396Z,99907.69
2023-04-28T01:58:56.887Z,99912.06
2023-04-28T02:01:58.856Z,99910.66
2023-04-28T02:05:01.949Z,99913.59
2023-04-28T02:08:04.962Z,99916.16
2023-04-28T02:11:07.322Z,99920.38
2023-04-28T02:14:09.226Z,99916.09
2023-04-28T02:17:11.179Z,99921.47
2023-04-28T02:20:14.600Z,99913.41
2023-04-28T02:23:16.558Z,99921.34
2023-04-28T02:26:18.562Z,99927.00
2023-04-28T02:29:20.552Z,99920.97
2023-04-28T02:32:22.391Z,99923.66
2023-04-28T02:35:26.433Z,99928.88
2023-04-28T02:38:28.958Z,99928.91
2023-04-28T02:41:31.725Z,99925.22
2023-04-28T02:44:33.690Z,99928.66
2023-04-28T02:47:35.665Z,99928.53
2023-04-28T02:50:37.705Z,99931.69
2023-04-28T02:53:40.179Z,99929.56
2023-04-28T02:56:42.288Z,99936.16
2023-04-28T02:59:44.247Z,99940.00
2023-04-28T03:02:46.681Z,99940.25
2023-04-28T03:05:48.574Z,99941.72
2023-04-28T03:08:51.792Z,99942.41
2023-04-28T03:11:53.738Z,99949.84
2023-04-28T03:14:56.041Z,99954.38
2023-04-28T03:17:58.031Z,99956.56
2023-04-28T03:20:59.954Z,99958.09
2023-04-28T03:24:04.854Z,99944.28
2023-04-28T03:27:07.559Z,99959.41
2023-04-28T03:30:10.491Z,99965.28
2023-04-28T03:33:13.514Z,99961.63
2023-04-28T03:36:16.119Z,99962.41
2023-04-28T03:39:18.072Z,99959.81
2023-04-28T03:42:19.991Z,99965.66
2023-04-28T03:45:41.691Z,99965.03
2023-04-28T03:48:46.117Z,99964.25
2023-04-28T03:51:50.051Z,99971.19
2023-04-28T03:54:52.330Z,99969.91
2023-04-28T03:57:55.043Z,99973.00
2023-04-28T04:00:57.087Z,99964.59
2023-04-28T04:03:59.601Z,99973.41
2023-04-28T04:07:02.586Z,99971.03
2023-04-28T04:10:05.340Z,99978.22
2023-04-28T04:13:09.297Z,99973.06
2023-04-28T04:16:11.537Z,99975.31
2023-04-28T04:19:14.017Z,99981.22
2023-04-28T04:22:17.108Z,99986.09
2023-04-28T04:25:19.734Z,99978.38
2023-04-28T04:28:24.091Z,99986.41
2023-04-28T04:31:26.182Z,99985.28
2023-04-28T04:34:28.452Z,99988.78
2023-04-28T04:37:30.495Z,99989.78
2023-04-28T04:40:36.693Z,99986.06
2023-04-28T04:43:39.207Z,99987.44
2023-04-28T04:46:41.305Z,99986.34
2023-04-28T04:49:44.380Z,99993.72
2023-04-28T04:52:46.582Z,99986.13
2023-04-28T04:55:48.743Z,99993.50
2023-04-28T04:58:52.373Z,99994.41
2023-04-28T05:02:17.689Z,99994.97
2023-04-28T05:05:21.698Z,99995.22
2023-04-28T05:08:40.694Z,99997.09
2023-04-28T05:11:43.858Z,99994.69
2023-04-28T05:14:46.165Z,99989.00
2023-04-28T05:17:48.490Z,99996.97
2023-04-28T05:20:51.127Z,99998.00
2023-04-28T05:23:54.454Z,100000.22
2023-04-28T05:26:59.365Z,100007.38
2023-04-28T05:30:01.502Z,100002.28
2023-04-28T05:33:03.994Z,100001.91
2023-04-28T05:36:06.395Z,100002.75
2023-04-28T05:39:13.284Z,100006.44
2023-04-28T05:42:16.827Z,100002.94
2023-04-28T05:45:18.714Z,100003.72
2023-04-28T05:48:20.814Z,100006.69
2023-04-28T05:51:22.877Z,100006.69
2023-04-28T05:54:25.054Z,100009.78
2023-04-28T05:57:30.541Z,100015.19
2023-04-28T06:00:36.029Z,100014.13
2023-04-28T06:03:38.403Z,100015.16
2023-04-28T06:06:41.579Z,100016.09
2023-04-28T06:09:44.362Z,100024.56
2023-04-28T06:12:47.166Z,100032.56
2023-04-28T06:16:08.999Z,100037.81
2023-04-28T06:19:11.971Z,100036.00
2023-04-28T06:22:14.239Z,100026.78
2023-04-28T06:25:16.576Z,100035.31
2023-04-28T06:28:21.375Z,100036.81
2023-04-28T06:31:23.460Z,100036.63
2023-04-28T06:34:28.903Z,100032.56
2023-04-28T06:37:31.496Z,100040.53
2023-04-28T06:56:56.345Z,100030.88
2023-04-28T06:59:59.622Z,100030.97
2023-04-28T07:03:01.739Z,100028.91
2023-04-28T07:06:04.471Z,100039.81
2023-04-28T07:09:06.496Z,100033.53
2023-04-28T07:12:08.578Z,100039.94
2023-04-28T07:15:11.078Z,100031.91
2023-04-28T07:18:12.999Z,100031.09
2023-04-28T07:21:14.945Z,100027.78
2023-04-28T07:24:17.269Z,100025.44
2023-04-28T07:27:19.348Z,100028.44
2023-04-28T07:30:27.945Z,100031.13
2023-04-28T07:33:30.557Z,100023.06
2023-04-28T07:36:33.218Z,100028.00
2023-04-28T07:39:35.393Z,100026.28
2023-04-28T07:42:37.484Z,100025.00
2023-04-28T07:45:40.395Z,100029.81
2023-04-28T07:48:42.429Z,100025.19
2023-04-28T07:51:44.347Z,100019.78
2023-04-28T07:54:46.675Z,100022.81
2023-04-28T07:57:49.609Z,100026.03
2023-04-28T08:00:51.509Z,100026.44
2023-04-28T08:03:53.750Z,100012.72
2023-04-28T08:06:55.727Z,100015.53
2023-04-28T08:09:58.208Z,100009.06
2023-04-28T08:13:00.190Z,100001.13
2023-04-28T08:16:02.243Z,100006.34
2023-04-28T08:19:04.439Z,99988.38
2023-04-28T08:22:07.376Z,99987.81
2023-04-28T08:25:09.637Z,99991.19
2023-04-28T08:28:11.516Z,99987.97
2023-04-28T08:31:13.686Z,99986.78
2023-04-28T08:34:16.606Z,99985.47
2023-04-28T08:37:19.403Z,99980.03
2023-04-28T08:40:33.153Z,99979.84
2023-04-28T08:43:36.605Z,99976.88
2023-04-28T08:46:42.253Z,99972.41
2023-04-28T08:49:45.670Z,99968.75
2023-04-28T08:52:48.371Z,99969.28
2023-04-28T08:55:54.264Z,99963.38
2023-04-28T08:58:56.593Z,99952.34
2023-04-28T09:02:00.543Z,99961.19
2023-04-28T09:05:03.438Z,99959.84
2023-04-28T09:08:05.877Z,99952.69
2023-04-28T09:11:10.777Z,99953.09
2023-04-28T09:14:13.154Z,99955.84
2023-04-28T09:17:16.597Z,99957.22
2023-04-28T09:20:38.378Z,99955.50
2023-04-28T09:24:00.258Z,99941.84
2023-04-28T09:27:28.045Z,99941.13
2023-04-28T09:30:41.019Z,99939.50
2023-04-28T09:34:00.670Z,99944.34
2023-04-28T09:37:15.524Z,99933.22
2023-04-28T09:44:32.822Z,99927.06
2023-04-28T09:47:37.665Z,99925.97
2023-04-28T09:50:40.218Z,99923.63
2023-04-28T09:53:42.424Z,99914.88
2023-04-28T09:56:47.170Z,99917.53
2023-04-28T09:59:53.864Z,99915.00
2023-04-28T10:02:57.224Z,99902.22
2023-04-28T10:05:59.487Z,99912.41
2023-04-28T10:09:02.089Z,99898.94
2023-04-28T10:12:05.355Z,99894.44
2023-04-28T10:15:09.654Z,99901.91
2023-04-28T10:18:15.102Z,99887.66
2023-04-28T10:21:20.034Z,99890.88
2023-04-28T10:24:29.572Z,99882.28
2023-04-28T10:27:32.087Z,99890.00
2023-04-28T10:30:35.277Z,99883.41
2023-04-28T10:33:37.882Z,99866.03
2023-04-28T10:36:52.482Z,99865.16
2023-04-28T10:40:32.856Z,99861.66
2023-04-28T10:43:40.119Z,99862.66
2023-04-28T10:47:04.379Z,99860.03
2023-04-28T10:50:11.350Z,99861.41
2023-04-28T10:53:13.411Z,99854.44
2023-04-28T10:56:21.665Z,99843.22
2023-04-28T10:59:28.396Z,99847.63
2023-04-28T11:02:41.081Z,99832.88
2023-04-28T11:06:24.935Z,99831.53
2023-04-28T11:09:32.593Z,99825.41
2023-04-28T11:12:34.505Z,99824.56
2023-04-28T11:15:36.456Z,99821.94
2023-04-28T11:18:59.347Z,99829.38
2023-04-28T11:22:09.949Z,99805.69
2023-04-28T11:25:11.829Z,99814.56
2023-04-28T11:28:13.769Z,99816.63
2023-04-28T11:31:19.423Z,99814.72
2023-04-28T11:34:22.698Z,99813.31
2023-04-28T11:37:24.825Z,99805.63
2023-04-28T11:40:26.884Z,99819.31
2023-04-28T11:43:46.085Z,99804.81
2023-04-28T11:47:03.260Z,99804.19
2023-04-28T11:50:06.168Z,99807.41
2023-04-28T11:53:08.134Z,99807.94
2023-04-28T11:56:10.362Z,99799.34
2023-04-28T11:59:13.784Z,99793.19
2023-04-28T12:02:17.141Z,99786.84
2023-04-28T12:32:31.887Z,99750.00
2023-04-28T12:36:38.370Z,99746.41
2023-04-28T12:45:16.284Z,99728.53
2023-04-28T12:48:18.522Z,99724.72
2023-04-28T12:51:20.466Z,99709.72
2023-04-28T12:54:22.661Z,99713.91
2023-04-28T12:57:24.596Z,99717.19
2023-04-28T13:00:27.095Z,99710.59
2023-04-28T13:03:29.584Z,99700.19
2023-04-28T13:06:32.694Z,99694.69
2023-04-28T13:09:36.326Z,99686.56
2023-04-28T13:12:39.271Z,99680.84
2023-04-28T13:15:41.157Z,99677.06
2023-04-28T13:18:43.334Z,99672.31
2023-04-28T13:21:47.123Z,99675.34
2023-04-28T13:24:49.291Z,99674.41
2023-04-28T13:27:52.007Z,99672.16
2023-04-28T13:30:53.918Z,99671.88
2023-04-28T13:33:56.167Z,99677.34
2023-04-28T13:36:58.034Z,99683.97
2023-04-28T13:39:59.950Z,99677.56
2023-04-28T13:43:01.991Z,99652.31
2023-04-28T13:46:08.453Z,99645.44
2023-04-28T13:49:10.745Z,99646.16
2023-04-28T13:52:14.042Z,99637.81
2023-04-28T13:55:16.256Z,99639.00
2023-04-28T13:58:27.830Z,99639.88
2023-04-28T14:01:30.045Z,99637.13
2023-04-28T14:04:32.298Z,99639.06
2023-04-28T14:07:34.441Z,99630.41
2023-04-28T14:10:36.585Z,99626.81
2023-04-28T14:13:38.610Z,99624.88
2023-04-28T14:16:40.568Z,99629.44
2023-04-28T14:19:42.570Z,99628.03
2023-04-28T14:23:24.340Z,99620.22
2023-04-28T14:27:25.999Z,99623.38
2023-04-28T14:30:47.856Z,99614.81
2023-04-28T14:33:50.342Z,99611.81
2023-04-28T14:36:52.926Z,99605.22
2023-04-28T14:39:55.032Z,99604.09
2023-04-28T14:42:57.625Z,99609.41
2023-04-28T14:45:59.929Z,99607.47
2023-04-28T14:49:02.819Z,99611.31
2023-04-28T14:52:04.873Z,99598.50
2023-04-28T14:55:07.087Z,99592.44
2023-04-28T14:58:08.968Z,99596.03
2023-04-28T15:01:11.230Z,99611.59
2023-04-28T15:04:13.427Z,99606.00
2023-04-28T15:07:15.479Z,99604.28
2023-04-28T15:10:17.893Z,99596.97
2023-04-28T15:13:19.934Z,99599.66
2023-04-28T15:16:21.869Z,99594.53
2023-04-28T15:19:24.267Z,99580.88
2023-04-28T15:22:26.272Z,99585.44
2023-04-28T15:25:28.336Z,99569.38
2023-04-28T15:28:30.404Z,99578.66
2023-04-28T15:31:33.012Z,99583.03
2023-04-28T15:34:35.378Z,99574.00
2023-04-28T15:37:47.490Z,99582.94
2023-04-28T15:40:49.910Z,99578.59
2023-04-28T15:43:52.274Z,99566.91
2023-04-28T15:46:54.362Z,99568.13
2023-04-28T15:49:59.151Z,99554.97
2023-04-28T15:53:08.128Z,99531.06
2023-04-28T15:56:10.994Z,99555.13
2023-04-28T15:59:16.082Z,99551.19
2023-04-28T16:02:18.537Z,99549.47
2023-04-28T16:05:20.728Z,99544.53
2023-04-28T16:08:25.979Z,99544.44
2023-04-28T16:11:29.767Z,99543.22
2023-04-28T16:14:32.841Z,99546.06
2023-04-28T16:17:35.995Z,99539.75
2023-04-28T16:20:38.691Z,99533.88
2023-04-28T16:23:40.746Z,99539.00
2023-04-28T16:26:42.652Z,99529.31
2023-04-28T16:29:45.883Z,99524.34
2023-04-28T16:32:47.971Z,99519.91
2023-04-28T16:35:58.290Z,99517.56
2023-04-28T16:39:00.209Z,99514.44
2023-04-28T16:42:05.401Z,99510.41
2023-04-28T16:45:08.243Z,99512.59
2023-04-28T16:48:10.251Z,99511.97
2023-04-28T16:51:12.151Z,99506.56
2023-04-28T16:54:14.139Z,99497.03
2023-04-28T16:57:16.221Z,99502.00
2023-04-28T17:00:20.148Z,99508.34
2023-04-28T17:03:22.248Z,99505.28
2023-04-28T17:06:24.526Z,99493.88
2023-04-28T17:09:27.681Z,99496.56
2023-04-28T17:12:29.722Z,99493.63
2023-04-28T17:15:31.703Z,99491.25
2023-04-28T17:18:33.861Z,99505.13
2023-04-28T17:21:35.780Z,99502.75
2023-04-28T17:24:37.695Z,99502.63
2023-04-28T17:27:39.749Z,99502.25
2023-04-28T17:30:43.878Z,99503.00
2023-04-28T17:33:51.731Z,99494.69
2023-04-28T17:36:53.637Z,99490.66
2023-04-28T17:39:55.674Z,99486.00
2023-04-28T17:42:58.221Z,99483.31
2023-04-28T17:46:00.174Z,99488.56
2023-04-28T17:49:01.992Z,99483.97
2023-04-28T17:52:04.156Z,99483.78
2023-04-28T17:55:06.464Z,99491.91
2023-04-28T17:58:08.422Z,99482.59
2023-04-28T18:01:10.602Z,99477.03
2023-04-28T18:04:12.682Z,99485.22
2023-04-28T18:07:14.732Z,99477.59
2023-04-28T18:10:17.125Z,99478.09
2023-04-28T18:13:19.144Z,99479.91
2023-04-28T18:16:21.124Z,99483.94
2023-04-28T18:19:24.068Z,99480.47
2023-04-28T18:22:26.457Z,99483.91
2023-04-28T18:25:28.510Z,99485.75
2023-04-28T18:28:30.589Z,99487.63
2023-04-28T18:31:33.697Z,99487.31
2023-04-28T18:34:35.685Z,99483.69
2023-04-28T18:37:37.852Z,99491.53
2023-04-28T18:40:40.845Z,99490.72
2023-04-28T18:43:43.398Z,99497.03
2023-04-28T18:47:05.191Z,99493.59
2023-04-28T18:50:27.285Z,99501.16
2023-04-28T18:53:49.078Z,99492.69
2023-04-28T18:57:11.666Z,99479.94
2023-04-28T19:00:35.691Z,99488.03
2023-04-28T19:03:46.387Z,99490.41
2023-04-28T19:06:49.336Z,99484.31
2023-04-28T19:09:51.920Z,99489.50
2023-04-28T19:12:53.977Z,99492.16
2023-04-28T19:15:56.389Z,99485.03
2023-04-28T19:18:58.558Z,99484.94
2023-04-28T19:22:01.659Z,99487.41
2023-04-28T19:25:05.373Z,99485.13
2023-04-28T19:28:08.360Z,99480.69
2023-04-28T19:31:11.163Z,99486.47
2023-04-28T19:34:13.867Z,99485.00
2023-04-28T19:37:16.434Z,99480.75
2023-04-28T19:40:18.757Z,99473.00
2023-04-28T19:43:21.602Z,99480.34
2023-04-28T19:46:23.680Z,99481.59
2023-04-28T19:49:26.179Z,99474.44
2023-04-28T19:52:28.367Z,99463.41
2023-04-28T19:55:31.097Z,99473.09
2023-04-28T19:58:34.303Z,99468.56
2023-04-28T20:01:41.702Z,99465.78
2023-04-28T20:04:44.073Z,99471.38
2023-04-28T20:07:47.715Z,99465.47
2023-04-28T20:10:50.141Z,99471.13
2023-04-28T20:13:52.027Z,99473.22
2023-04-28T20:16:54.427Z,99478.06
2023-04-28T20:19:56.832Z,99468.78
2023-04-28T20:22:59.076Z,99476.59
2023-04-28T20:26:01.171Z,99474.97
2023-04-28T20:29:03.362Z,99464.63
2023-04-28T20:32:05.657Z,99472.25
2023-04-28T20:35:08.089Z,99467.94
2023-04-28T20:38:10.110Z,99466.69
2023-04-28T20:41:12.494Z,99471.13
2023-04-28T20:44:15.332Z,99454.00
2023-04-28T20:47:17.896Z,99469.94
2023-04-28T20:50:19.844Z,99468.38
2023-04-28T20:53:22.316Z,99465.91
2023-04-28T20:56:24.272Z,99466.94
2023-04-28T20:59:26.354Z,99462.97
2023-04-28T21:02:28.477Z,99461.88
2023-04-28T21:05:30.669Z,99456.47
2023-04-28T21:08:32.697Z,99464.97
2023-04-28T21:11:34.578Z,99462.00
2023-04-28T21:14:39.732Z,99444.41
2023-04-28T21:17:41.595Z,99464.84
2023-04-28T21:20:43.610Z,99463.22
2023-04-28T21:23:45.704Z,99459.69
2023-04-28T21:26:47.670Z,99463.44
2023-04-28T21:29:49.980Z,99465.59
2023-04-28T21:32:52.854Z,99471.41
2023-04-28T21:35:55.304Z,99460.22
2023-04-28T21:38:57.258Z,99468.28
2023-04-28T21:41:59.433Z,99460.41
2023-04-28T21:45:01.881Z,99461.75
2023-04-28T21:48:06.353Z,99461.53
2023-04-28T21:51:08.347Z,99458.22
2023-04-28T21:54:10.963Z,99463.81
2023-04-28T21:57:15.881Z,99460.22
2023-04-28T22:00:19.214Z,99459.97
2023-04-28T22:03:21.404Z,99460.31
2023-04-28T22:06:23.760Z,99451.41
2023-04-28T22:09:27.258Z,99454.75
2023-04-28T22:12:29.370Z,99452.59
2023-04-28T22:15:31.379Z,99451.72
2023-04-28T22:18:33.337Z,99443.16
2023-04-28T22:21:35.245Z,99448.44
2023-04-28T22:24:37.191Z,99447.72
2023-04-28T22:27:40.574Z,99445.44
2023-04-28T22:30:44.612Z,99440.16
2023-04-28T22:33:46.848Z,99437.25
2023-04-28T22:36:48.754Z,99439.72
2023-04-28T22:39:50.873Z,99443.56
2023-04-28T22:42:52.946Z,99434.69
2023-04-28T22:45:57.185Z,99427.31
2023-04-28T22:48:59.170Z,99427.94
2023-04-28T22:52:01.678Z,99437.03
2023-04-28T22:55:04.672Z,99431.34
2023-04-28T22:58:07.135Z,99430.72
2023-04-28T23:01:09.364Z,99424.91
2023-04-28T23:04:11.994Z,99413.47
2023-04-28T23:07:14.260Z,99420.16
2023-04-28T23:10:18.384Z,99414.56
2023-04-28T23:13:30.428Z,99401.56
2023-04-28T23:16:32.477Z,99413.13
2023-04-28T23:19:39.274Z,99415.00
2023-04-28T23:22:41.965Z,99410.41
2023-04-28T23:25:44.100Z,99408.06
2023-04-28T23:28:46.687Z,99398.78
2023-04-28T23:31:52.587Z,99407.84
2023-04-28T23:34:54.753Z,99407.03
2023-04-28T23:37:56.567Z,99405.53
2023-04-28T23:40:58.431Z,99407.06
2023-04-28T23:44:00.429Z,99404.19
2023-04-28T23:47:02.449Z,99400.78
2023-04-28T23:50:05.074Z,99398.00
2023-04-28T23:53:07.631Z,99387.28
2023-04-28T23:56:09.799Z,99401.41
2023-04-28T23:59:11.762Z,99392.88
